This is the latest recevied weather packets stored in our database for station/object VK6DC-13. If no packets are shown the sender has not sent any weather packets the latest 10 day(s).
| Time | Temp. | Humidity | Pressure | Rain* | Wind** | Luminosity | Snow |
|---|---|---|---|---|---|---|---|
| 1787719235 | 15° C | 96% | 1017.7 hPa | 2.54 mm | - | 160 W/m² | - |
| 1787718632 | 15° C | 96% | 1017.7 hPa | 3.56 mm | - | 223 W/m² | - |
| 1787718030 | 14.44° C | 96% | 1017.8 hPa | 4.06 mm | - | 285 W/m² | - |
| 1787717427 | 13.89° C | 95% | 1018.1 hPa | 4.06 mm | - | 150 W/m² | - |
| 1787716825 | 14.44° C | 95% | 1018.2 hPa | 5.33 mm | - | 63 W/m² | - |
| 1787716222 | 14.44° C | 95% | 1018.3 hPa | 6.86 mm | - | 81 W/m² | - |
| 1787715619 | 14.44° C | 94% | 1018.5 hPa | 7.11 mm | - | 46 W/m² | - |
| 1787715017 | 14.44° C | 94% | 1018.7 hPa | 6.35 mm | - | 60 W/m² | - |
| 1787714434 | 13.89° C | 93% | 1018.6 hPa | 5.84 mm | - | 110 W/m² | - |
| 1787713832 | 14.44° C | 93% | 1019 hPa | 5.08 mm | - | 57 W/m² | - |
| 1787713229 | 15.56° C | 92% | 1019.2 hPa | 3.05 mm | - | 30 W/m² | - |
| 1787712626 | 16.11° C | 92% | 1019 hPa | 1.02 mm | - | 19 W/m² | - |
| 1787712024 | 16.11° C | 92% | 1018.9 hPa | 0.51 mm | - | 28 W/m² | - |
| 1787711422 | 16.11° C | 94% | 1018.8 hPa | 0 mm | - | 37 W/m² | - |
| 1787710819 | 16.11° C | 95% | 1018.7 hPa | 0 mm | - | 51 W/m² | - |
| 1787710217 | 16.11° C | 96% | 1018.8 hPa | 0 mm | - | 59 W/m² | - |
| 1787709634 | 16.11° C | 97% | 1018.7 hPa | 0 mm | - | 70 W/m² | - |
| 1787709032 | 15.56° C | 97% | 1018.6 hPa | 0 mm | - | 158 W/m² | - |
| 1787708429 | 15° C | 97% | 1018.5 hPa | 0 mm | - | 262 W/m² | - |
| 1787707826 | 14.44° C | 97% | 1018.6 hPa | 0 mm | - | 255 W/m² | - |
| 1787707224 | 14.44° C | 97% | 1018.7 hPa | 0 mm | - | 177 W/m² | - |
| 1787706621 | 14.44° C | 97% | 1018.7 hPa | 0 mm | - | 169 W/m² | - |
| 1787706019 | 14.44° C | 97% | 1018.8 hPa | 0 mm | - | 176 W/m² | - |
| 1787705416 | 14.44° C | 97% | 1018.8 hPa | 0 mm | - | 199 W/m² | - |
| 1787704834 | 13.89° C | 97% | 1018.8 hPa | 0 mm | - | 186 W/m² | - |
* Rain latest hour (hover to see other rain measurements)
** Current wind speed in m/s (hover to see current wind gust speed)